sensor_id;sensor_type;location;lat;lon;timestamp;pressure;altitude;pressure_sealevel;temperature;humidity
7986;BME280;4038;42.612;23.066;2023-09-30T00:01:11;93513.13;;;21.46;43.92
7986;BME280;4038;42.612;23.066;2023-09-30T00:03:37;93509.03;;;21.31;43.51
7986;BME280;4038;42.612;23.066;2023-09-30T00:06:02;93513.22;;;21.02;43.52
7986;BME280;4038;42.612;23.066;2023-09-30T00:08:29;93503.47;;;20.73;44.29
7986;BME280;4038;42.612;23.066;2023-09-30T00:10:54;93502.91;;;20.67;44.74
7986;BME280;4038;42.612;23.066;2023-09-30T00:13:20;93507.09;;;21.11;43.62
7986;BME280;4038;42.612;23.066;2023-09-30T00:15:45;93505.53;;;20.80;44.01
7986;BME280;4038;42.612;23.066;2023-09-30T00:18:11;93504.72;;;19.92;46.43
7986;BME280;4038;42.612;23.066;2023-09-30T00:20:36;93508.09;;;19.98;46.06
7986;BME280;4038;42.612;23.066;2023-09-30T00:23:02;93503.50;;;19.10;48.15
7986;BME280;4038;42.612;23.066;2023-09-30T00:25:27;93509.59;;;19.99;46.51
7986;BME280;4038;42.612;23.066;2023-09-30T00:27:53;93508.63;;;20.25;45.70
7986;BME280;4038;42.612;23.066;2023-09-30T00:30:18;93499.78;;;20.34;45.49
7986;BME280;4038;42.612;23.066;2023-09-30T00:32:43;93506.66;;;20.33;45.61
7986;BME280;4038;42.612;23.066;2023-09-30T00:35:09;93497.44;;;20.53;44.86
7986;BME280;4038;42.612;23.066;2023-09-30T00:37:38;93496.56;;;20.58;45.38
7986;BME280;4038;42.612;23.066;2023-09-30T00:40:05;93503.31;;;20.86;44.92
7986;BME280;4038;42.612;23.066;2023-09-30T00:42:30;93498.81;;;19.67;46.76
7986;BME280;4038;42.612;23.066;2023-09-30T00:44:56;93503.16;;;18.93;48.84
7986;BME280;4038;42.612;23.066;2023-09-30T00:47:22;93501.19;;;19.92;47.19
7986;BME280;4038;42.612;23.066;2023-09-30T00:49:49;93504.31;;;19.39;47.53
7986;BME280;4038;42.612;23.066;2023-09-30T00:52:16;93507.16;;;18.84;49.54
7986;BME280;4038;42.612;23.066;2023-09-30T00:54:42;93500.72;;;18.89;49.85
7986;BME280;4038;42.612;23.066;2023-09-30T00:57:09;93510.44;;;19.58;48.19
7986;BME280;4038;42.612;23.066;2023-09-30T00:59:35;93505.38;;;19.77;47.52
7986;BME280;4038;42.612;23.066;2023-09-30T01:02:01;93513.47;;;19.26;49.04
7986;BME280;4038;42.612;23.066;2023-09-30T01:04:27;93499.69;;;19.62;47.95
7986;BME280;4038;42.612;23.066;2023-09-30T01:06:53;93509.19;;;19.46;48.60
7986;BME280;4038;42.612;23.066;2023-09-30T01:09:19;93506.50;;;19.82;47.92
7986;BME280;4038;42.612;23.066;2023-09-30T01:11:45;93497.16;;;19.23;48.92
7986;BME280;4038;42.612;23.066;2023-09-30T01:14:33;93499.16;;;19.64;47.51
7986;BME280;4038;42.612;23.066;2023-09-30T01:17:06;93506.50;;;18.57;50.31
7986;BME280;4038;42.612;23.066;2023-09-30T01:19:35;93501.75;;;18.05;51.75
7986;BME280;4038;42.612;23.066;2023-09-30T01:22:00;93495.97;;;18.03;52.02
7986;BME280;4038;42.612;23.066;2023-09-30T01:24:30;93504.13;;;18.48;50.81
7986;BME280;4038;42.612;23.066;2023-09-30T01:26:56;93493.66;;;18.88;49.96
7986;BME280;4038;42.612;23.066;2023-09-30T01:29:23;93490.25;;;18.82;49.91
7986;BME280;4038;42.612;23.066;2023-09-30T01:31:50;93501.28;;;19.08;49.54
7986;BME280;4038;42.612;23.066;2023-09-30T01:34:16;93487.09;;;19.20;49.01
7986;BME280;4038;42.612;23.066;2023-09-30T01:36:42;93502.97;;;19.81;47.74
7986;BME280;4038;42.612;23.066;2023-09-30T01:39:09;93501.78;;;19.98;47.88
7986;BME280;4038;42.612;23.066;2023-09-30T01:41:38;93495.75;;;19.78;47.38
7986;BME280;4038;42.612;23.066;2023-09-30T01:44:04;93510.19;;;19.77;47.45
7986;BME280;4038;42.612;23.066;2023-09-30T01:46:30;93497.22;;;19.79;47.13
7986;BME280;4038;42.612;23.066;2023-09-30T01:48:56;93510.16;;;19.28;47.79
7986;BME280;4038;42.612;23.066;2023-09-30T01:51:21;93511.50;;;19.14;47.45
7986;BME280;4038;42.612;23.066;2023-09-30T01:53:47;93507.97;;;18.92;48.91
7986;BME280;4038;42.612;23.066;2023-09-30T01:56:12;93518.50;;;17.86;51.77
7986;BME280;4038;42.612;23.066;2023-09-30T01:58:38;93500.47;;;17.93;52.45
7986;BME280;4038;42.612;23.066;2023-09-30T02:01:04;93506.44;;;18.10;51.99
7986;BME280;4038;42.612;23.066;2023-09-30T02:03:30;93502.69;;;17.94;52.30
7986;BME280;4038;42.612;23.066;2023-09-30T02:05:57;93502.38;;;18.11;52.91
7986;BME280;4038;42.612;23.066;2023-09-30T02:08:23;93494.06;;;18.71;50.09
7986;BME280;4038;42.612;23.066;2023-09-30T02:10:48;93500.34;;;18.72;50.06
7986;BME280;4038;42.612;23.066;2023-09-30T02:13:14;93492.63;;;18.78;50.02
7986;BME280;4038;42.612;23.066;2023-09-30T02:15:40;93492.91;;;18.88;49.28
7986;BME280;4038;42.612;23.066;2023-09-30T02:18:06;93490.69;;;19.07;49.18
7986;BME280;4038;42.612;23.066;2023-09-30T02:20:32;93503.63;;;18.84;50.04
7986;BME280;4038;42.612;23.066;2023-09-30T02:22:58;93506.94;;;19.03;48.63
7986;BME280;4038;42.612;23.066;2023-09-30T02:25:24;93496.84;;;18.92;49.25
7986;BME280;4038;42.612;23.066;2023-09-30T02:27:50;93503.19;;;18.32;51.14
7986;BME280;4038;42.612;23.066;2023-09-30T02:30:16;93494.56;;;19.25;48.71
7986;BME280;4038;42.612;23.066;2023-09-30T02:32:42;93508.75;;;18.32;50.60
7986;BME280;4038;42.612;23.066;2023-09-30T02:35:09;93495.66;;;18.20;51.63
7986;BME280;4038;42.612;23.066;2023-09-30T02:37:37;93495.88;;;18.69;50.26
7986;BME280;4038;42.612;23.066;2023-09-30T02:40:06;93492.69;;;18.65;50.95
7986;BME280;4038;42.612;23.066;2023-09-30T02:42:39;93497.78;;;18.95;49.72
7986;BME280;4038;42.612;23.066;2023-09-30T02:45:05;93492.38;;;18.89;49.75
7986;BME280;4038;42.612;23.066;2023-09-30T02:47:32;93500.59;;;18.61;50.39
7986;BME280;4038;42.612;23.066;2023-09-30T02:49:57;93502.59;;;17.74;52.18
7986;BME280;4038;42.612;23.066;2023-09-30T02:52:27;93499.13;;;18.33;51.85
7986;BME280;4038;42.612;23.066;2023-09-30T02:54:54;93500.25;;;17.78;52.65
7986;BME280;4038;42.612;23.066;2023-09-30T02:57:20;93503.25;;;18.06;51.87
7986;BME280;4038;42.612;23.066;2023-09-30T02:59:46;93502.94;;;17.70;52.85
7986;BME280;4038;42.612;23.066;2023-09-30T03:02:12;93499.06;;;18.13;50.97
7986;BME280;4038;42.612;23.066;2023-09-30T03:04:37;93502.06;;;18.15;51.14
7986;BME280;4038;42.612;23.066;2023-09-30T03:07:03;93497.16;;;17.68;51.92
7986;BME280;4038;42.612;23.066;2023-09-30T03:09:28;93499.13;;;17.41;53.17
7986;BME280;4038;42.612;23.066;2023-09-30T03:11:54;93496.63;;;17.70;52.67
7986;BME280;4038;42.612;23.066;2023-09-30T03:14:22;93497.91;;;17.24;54.15
7986;BME280;4038;42.612;23.066;2023-09-30T03:16:48;93496.50;;;17.62;53.00
7986;BME280;4038;42.612;23.066;2023-09-30T03:19:14;93502.81;;;16.86;55.00
7986;BME280;4038;42.612;23.066;2023-09-30T03:21:41;93501.03;;;17.33;53.60
7986;BME280;4038;42.612;23.066;2023-09-30T03:24:07;93513.22;;;16.79;55.14
7986;BME280;4038;42.612;23.066;2023-09-30T03:26:33;93509.28;;;16.75;55.88
7986;BME280;4038;42.612;23.066;2023-09-30T03:28:59;93499.69;;;17.08;54.94
7986;BME280;4038;42.612;23.066;2023-09-30T03:31:24;93501.31;;;17.88;52.41
7986;BME280;4038;42.612;23.066;2023-09-30T03:33:50;93504.53;;;18.52;51.39
7986;BME280;4038;42.612;23.066;2023-09-30T03:36:20;93501.56;;;18.50;51.56
7986;BME280;4038;42.612;23.066;2023-09-30T03:38:45;93503.88;;;18.73;50.25
7986;BME280;4038;42.612;23.066;2023-09-30T03:41:10;93498.47;;;18.41;51.18
7986;BME280;4038;42.612;23.066;2023-09-30T03:43:40;93504.34;;;18.63;50.51
7986;BME280;4038;42.612;23.066;2023-09-30T03:46:07;93497.47;;;18.98;50.26
7986;BME280;4038;42.612;23.066;2023-09-30T03:48:33;93505.13;;;18.24;51.12
7986;BME280;4038;42.612;23.066;2023-09-30T03:53:39;93493.84;;;17.70;52.21
7986;BME280;4038;42.612;23.066;2023-09-30T03:56:04;93494.28;;;18.13;51.13
7986;BME280;4038;42.612;23.066;2023-09-30T03:58:30;93493.06;;;18.35;50.88
7986;BME280;4038;42.612;23.066;2023-09-30T04:00:56;93489.59;;;18.89;49.19
7986;BME280;4038;42.612;23.066;2023-09-30T04:03:21;93496.81;;;18.24;50.70
7986;BME280;4038;42.612;23.066;2023-09-30T04:05:46;93492.00;;;18.25;50.90
7986;BME280;4038;42.612;23.066;2023-09-30T04:08:15;93498.88;;;17.71;51.86
7986;BME280;4038;42.612;23.066;2023-09-30T04:10:42;93500.03;;;18.02;51.16
7986;BME280;4038;42.612;23.066;2023-09-30T04:13:08;93497.47;;;17.91;51.55
7986;BME280;4038;42.612;23.066;2023-09-30T04:15:34;93504.34;;;17.58;51.99
7986;BME280;4038;42.612;23.066;2023-09-30T04:18:00;93493.31;;;17.13;53.44
7986;BME280;4038;42.612;23.066;2023-09-30T04:20:26;93494.06;;;17.98;51.21
7986;BME280;4038;42.612;23.066;2023-09-30T04:22:52;93494.47;;;17.89;51.56
7986;BME280;4038;42.612;23.066;2023-09-30T04:25:22;93497.44;;;17.51;52.75
7986;BME280;4038;42.612;23.066;2023-09-30T04:27:50;93486.69;;;17.16;53.35
7986;BME280;4038;42.612;23.066;2023-09-30T04:30:16;93498.28;;;17.60;52.64
7986;BME280;4038;42.612;23.066;2023-09-30T04:32:42;93504.69;;;18.33;50.58
7986;BME280;4038;42.612;23.066;2023-09-30T04:35:08;93505.16;;;18.11;51.02
7986;BME280;4038;42.612;23.066;2023-09-30T04:37:34;93509.53;;;18.20;51.06
7986;BME280;4038;42.612;23.066;2023-09-30T04:40:03;93507.47;;;18.33;50.76
7986;BME280;4038;42.612;23.066;2023-09-30T04:42:33;93513.50;;;17.85;51.46
7986;BME280;4038;42.612;23.066;2023-09-30T04:44:59;93515.19;;;17.62;52.47
7986;BME280;4038;42.612;23.066;2023-09-30T04:47:25;93502.44;;;17.40;53.00
7986;BME280;4038;42.612;23.066;2023-09-30T04:49:51;93522.69;;;17.03;53.94
7986;BME280;4038;42.612;23.066;2023-09-30T04:52:16;93520.00;;;18.01;51.17
7986;BME280;4038;42.612;23.066;2023-09-30T04:54:41;93521.53;;;18.62;49.90
7986;BME280;4038;42.612;23.066;2023-09-30T04:57:07;93513.34;;;18.43;49.83
7986;BME280;4038;42.612;23.066;2023-09-30T04:59:33;93521.41;;;19.01;48.51
7986;BME280;4038;42.612;23.066;2023-09-30T05:01:59;93518.16;;;19.10;48.51
7986;BME280;4038;42.612;23.066;2023-09-30T05:04:25;93516.63;;;18.89;48.42
7986;BME280;4038;42.612;23.066;2023-09-30T05:06:51;93524.53;;;19.19;47.84
7986;BME280;4038;42.612;23.066;2023-09-30T05:09:16;93528.13;;;19.27;48.08
7986;BME280;4038;42.612;23.066;2023-09-30T05:11:41;93530.13;;;20.45;45.48
7986;BME280;4038;42.612;23.066;2023-09-30T05:14:07;93532.63;;;20.72;44.31
7986;BME280;4038;42.612;23.066;2023-09-30T05:16:32;93529.03;;;20.56;44.42
7986;BME280;4038;42.612;23.066;2023-09-30T05:18:58;93531.41;;;20.44;44.88
7986;BME280;4038;42.612;23.066;2023-09-30T05:21:23;93528.88;;;19.97;45.85
7986;BME280;4038;42.612;23.066;2023-09-30T05:23:49;93525.28;;;19.89;46.34
7986;BME280;4038;42.612;23.066;2023-09-30T05:26:14;93529.41;;;20.52;45.56
7986;BME280;4038;42.612;23.066;2023-09-30T05:28:40;93527.00;;;21.15;43.91
7986;BME280;4038;42.612;23.066;2023-09-30T05:31:06;93531.16;;;21.45;43.04
7986;BME280;4038;42.612;23.066;2023-09-30T05:33:33;93531.09;;;21.14;44.26
7986;BME280;4038;42.612;23.066;2023-09-30T05:35:58;93536.34;;;21.48;43.02
7986;BME280;4038;42.612;23.066;2023-09-30T05:38:25;93524.09;;;21.59;43.14
7986;BME280;4038;42.612;23.066;2023-09-30T05:40:51;93540.66;;;22.17;41.87
7986;BME280;4038;42.612;23.066;2023-09-30T05:43:17;93541.78;;;21.54;43.14
7986;BME280;4038;42.612;23.066;2023-09-30T05:45:42;93541.69;;;22.52;41.43
7986;BME280;4038;42.612;23.066;2023-09-30T05:48:14;93544.03;;;23.19;40.38
7986;BME280;4038;42.612;23.066;2023-09-30T05:50:40;93535.03;;;23.20;39.88
7986;BME280;4038;42.612;23.066;2023-09-30T05:53:06;93539.91;;;23.52;39.49
7986;BME280;4038;42.612;23.066;2023-09-30T05:55:31;93534.78;;;24.33;37.33
7986;BME280;4038;42.612;23.066;2023-09-30T05:57:57;93542.66;;;25.40;35.50
7986;BME280;4038;42.612;23.066;2023-09-30T06:00:24;93541.03;;;26.65;33.94
7986;BME280;4038;42.612;23.066;2023-09-30T06:02:57;93551.16;;;25.76;35.42
7986;BME280;4038;42.612;23.066;2023-09-30T06:05:22;93547.63;;;25.85;34.64
7986;BME280;4038;42.612;23.066;2023-09-30T06:07:51;93547.72;;;26.99;33.38
7986;BME280;4038;42.612;23.066;2023-09-30T06:10:17;93558.69;;;27.74;32.31
7986;BME280;4038;42.612;23.066;2023-09-30T06:12:50;93559.00;;;28.40;30.69
7986;BME280;4038;42.612;23.066;2023-09-30T06:15:20;93559.25;;;28.22;31.17
7986;BME280;4038;42.612;23.066;2023-09-30T06:17:50;93559.94;;;28.32;31.12
7986;BME280;4038;42.612;23.066;2023-09-30T06:20:17;93547.47;;;27.64;32.00
7986;BME280;4038;42.612;23.066;2023-09-30T06:22:44;93559.44;;;28.05;31.64
7986;BME280;4038;42.612;23.066;2023-09-30T06:25:17;93559.38;;;28.24;31.52
7986;BME280;4038;42.612;23.066;2023-09-30T06:27:46;93556.75;;;29.23;30.55
7986;BME280;4038;42.612;23.066;2023-09-30T06:30:13;93560.03;;;29.97;29.07
7986;BME280;4038;42.612;23.066;2023-09-30T06:32:39;93564.75;;;28.94;30.49
7986;BME280;4038;42.612;23.066;2023-09-30T06:35:06;93569.16;;;28.54;31.48
7986;BME280;4038;42.612;23.066;2023-09-30T06:37:32;93565.44;;;30.63;28.40
7986;BME280;4038;42.612;23.066;2023-09-30T06:39:58;93561.69;;;30.84;27.75
7986;BME280;4038;42.612;23.066;2023-09-30T06:42:24;93571.75;;;29.59;30.13
7986;BME280;4038;42.612;23.066;2023-09-30T06:44:49;93555.34;;;30.48;28.65
7986;BME280;4038;42.612;23.066;2023-09-30T06:47:15;93547.72;;;32.40;26.22
7986;BME280;4038;42.612;23.066;2023-09-30T06:49:41;93558.63;;;32.18;26.34
7986;BME280;4038;42.612;23.066;2023-09-30T06:52:07;93565.78;;;32.33;26.21
7986;BME280;4038;42.612;23.066;2023-09-30T06:54:32;93561.97;;;32.14;26.49
7986;BME280;4038;42.612;23.066;2023-09-30T06:56:58;93565.03;;;33.44;25.18
7986;BME280;4038;42.612;23.066;2023-09-30T06:59:23;93566.09;;;30.98;27.51
7986;BME280;4038;42.612;23.066;2023-09-30T07:01:50;93575.28;;;31.22;27.63
7986;BME280;4038;42.612;23.066;2023-09-30T07:04:16;93574.94;;;32.06;26.86
7986;BME280;4038;42.612;23.066;2023-09-30T07:06:41;93569.38;;;31.18;27.49
7986;BME280;4038;42.612;23.066;2023-09-30T07:09:06;93573.13;;;33.20;25.40
7986;BME280;4038;42.612;23.066;2023-09-30T07:11:32;93573.72;;;33.18;25.89
7986;BME280;4038;42.612;23.066;2023-09-30T07:13:58;93564.50;;;32.49;26.80
7986;BME280;4038;42.612;23.066;2023-09-30T07:16:24;93581.84;;;33.10;26.31
7986;BME280;4038;42.612;23.066;2023-09-30T07:18:49;93569.41;;;32.08;26.99
7986;BME280;4038;42.612;23.066;2023-09-30T07:21:15;93557.34;;;32.35;26.40
7986;BME280;4038;42.612;23.066;2023-09-30T07:23:41;93561.00;;;31.20;27.61
7986;BME280;4038;42.612;23.066;2023-09-30T07:26:06;93569.38;;;32.47;26.01
7986;BME280;4038;42.612;23.066;2023-09-30T07:28:33;93576.72;;;33.07;25.54
7986;BME280;4038;42.612;23.066;2023-09-30T07:30:58;93574.91;;;33.00;25.70
7986;BME280;4038;42.612;23.066;2023-09-30T07:33:23;93578.59;;;32.20;25.51
7986;BME280;4038;42.612;23.066;2023-09-30T07:35:49;93567.94;;;34.20;23.87
7986;BME280;4038;42.612;23.066;2023-09-30T07:38:14;93571.88;;;33.97;23.31
7986;BME280;4038;42.612;23.066;2023-09-30T07:40:40;93576.66;;;33.93;23.28
7986;BME280;4038;42.612;23.066;2023-09-30T07:43:06;93568.97;;;34.27;23.20
7986;BME280;4038;42.612;23.066;2023-09-30T07:45:32;93574.81;;;34.15;23.16
7986;BME280;4038;42.612;23.066;2023-09-30T07:47:57;93570.97;;;33.93;23.11
7986;BME280;4038;42.612;23.066;2023-09-30T07:50:30;93580.38;;;34.27;22.61
7986;BME280;4038;42.612;23.066;2023-09-30T07:52:55;93570.72;;;35.32;21.37
7986;BME280;4038;42.612;23.066;2023-09-30T07:55:21;93572.47;;;35.75;21.36
7986;BME280;4038;42.612;23.066;2023-09-30T07:57:46;93572.44;;;35.21;21.58
7986;BME280;4038;42.612;23.066;2023-09-30T08:00:12;93566.88;;;35.26;21.68
7986;BME280;4038;42.612;23.066;2023-09-30T08:02:41;93570.59;;;35.12;21.71
7986;BME280;4038;42.612;23.066;2023-09-30T08:05:07;93566.50;;;34.51;21.91
7986;BME280;4038;42.612;23.066;2023-09-30T08:07:33;93572.16;;;34.19;22.27
7986;BME280;4038;42.612;23.066;2023-09-30T08:09:59;93561.94;;;33.83;21.46
7986;BME280;4038;42.612;23.066;2023-09-30T08:12:25;93550.22;;;32.34;23.09
7986;BME280;4038;42.612;23.066;2023-09-30T08:14:50;93553.47;;;32.28;23.05
7986;BME280;4038;42.612;23.066;2023-09-30T08:17:17;93561.13;;;32.12;22.34
7986;BME280;4038;42.612;23.066;2023-09-30T08:19:43;93568.81;;;33.78;21.02
7986;BME280;4038;42.612;23.066;2023-09-30T08:22:09;93567.75;;;34.79;19.55
7986;BME280;4038;42.612;23.066;2023-09-30T08:24:35;93562.03;;;33.26;20.43
7986;BME280;4038;42.612;23.066;2023-09-30T08:27:01;93563.66;;;33.45;20.42
7986;BME280;4038;42.612;23.066;2023-09-30T08:29:26;93568.91;;;32.93;20.84
7986;BME280;4038;42.612;23.066;2023-09-30T08:31:51;93568.44;;;32.56;20.29
7986;BME280;4038;42.612;23.066;2023-09-30T08:34:17;93563.03;;;32.21;20.56
7986;BME280;4038;42.612;23.066;2023-09-30T08:36:45;93553.34;;;32.94;20.20
7986;BME280;4038;42.612;23.066;2023-09-30T08:39:10;93571.50;;;33.30;20.40
7986;BME280;4038;42.612;23.066;2023-09-30T08:41:36;93559.88;;;32.97;19.82
7986;BME280;4038;42.612;23.066;2023-09-30T08:44:03;93560.31;;;34.56;19.36
7986;BME280;4038;42.612;23.066;2023-09-30T08:46:34;93558.03;;;34.21;19.10
7986;BME280;4038;42.612;23.066;2023-09-30T08:49:01;93553.44;;;33.98;19.34
7986;BME280;4038;42.612;23.066;2023-09-30T08:51:28;93562.50;;;34.10;19.58
7986;BME280;4038;42.612;23.066;2023-09-30T08:53:55;93554.84;;;32.27;21.33
7986;BME280;4038;42.612;23.066;2023-09-30T08:56:26;93556.50;;;33.01;20.53
7986;BME280;4038;42.612;23.066;2023-09-30T08:58:54;93553.53;;;33.26;19.83
7986;BME280;4038;42.612;23.066;2023-09-30T09:01:21;93555.56;;;33.68;19.72
7986;BME280;4038;42.612;23.066;2023-09-30T09:03:47;93552.94;;;33.72;20.27
7986;BME280;4038;42.612;23.066;2023-09-30T09:06:18;93567.47;;;33.79;19.77
7986;BME280;4038;42.612;23.066;2023-09-30T09:08:44;93543.81;;;32.74;19.66
7986;BME280;4038;42.612;23.066;2023-09-30T09:11:10;93543.31;;;33.50;19.68
7986;BME280;4038;42.612;23.066;2023-09-30T09:13:55;93544.09;;;34.43;18.77
7986;BME280;4038;42.612;23.066;2023-09-30T09:16:22;93551.91;;;34.27;19.15
7986;BME280;4038;42.612;23.066;2023-09-30T09:18:48;93540.78;;;33.27;19.49
7986;BME280;4038;42.612;23.066;2023-09-30T09:21:18;93548.00;;;34.52;18.96
7986;BME280;4038;42.612;23.066;2023-09-30T09:23:47;93545.88;;;33.44;19.67
7986;BME280;4038;42.612;23.066;2023-09-30T09:26:24;93544.91;;;34.14;19.16
7986;BME280;4038;42.612;23.066;2023-09-30T09:28:50;93541.66;;;33.45;19.85
7986;BME280;4038;42.612;23.066;2023-09-30T09:31:22;93544.69;;;34.10;19.41
7986;BME280;4038;42.612;23.066;2023-09-30T09:33:50;93543.50;;;32.27;20.81
7986;BME280;4038;42.612;23.066;2023-09-30T09:36:15;93547.19;;;33.57;19.50
7986;BME280;4038;42.612;23.066;2023-09-30T09:38:49;93547.91;;;33.57;19.80
7986;BME280;4038;42.612;23.066;2023-09-30T09:41:18;93534.63;;;34.07;19.82
7986;BME280;4038;42.612;23.066;2023-09-30T09:43:44;93532.75;;;32.67;20.56
7986;BME280;4038;42.612;23.066;2023-09-30T09:46:10;93543.81;;;34.21;19.77
7986;BME280;4038;42.612;23.066;2023-09-30T09:48:36;93535.22;;;34.84;18.89
7986;BME280;4038;42.612;23.066;2023-09-30T09:51:03;93539.09;;;33.51;20.56
7986;BME280;4038;42.612;23.066;2023-09-30T09:53:35;93537.25;;;33.72;20.15
7986;BME280;4038;42.612;23.066;2023-09-30T09:56:03;93515.28;;;34.84;19.09
7986;BME280;4038;42.612;23.066;2023-09-30T09:58:32;93538.97;;;33.63;20.26
7986;BME280;4038;42.612;23.066;2023-09-30T10:01:00;93523.69;;;32.98;20.65
7986;BME280;4038;42.612;23.066;2023-09-30T10:03:26;93525.84;;;32.29;21.38
7986;BME280;4038;42.612;23.066;2023-09-30T10:05:51;93522.81;;;33.67;20.31
7986;BME280;4038;42.612;23.066;2023-09-30T10:08:20;93517.69;;;34.74;19.38
7986;BME280;4038;42.612;23.066;2023-09-30T10:10:47;93514.00;;;34.71;19.50
7986;BME280;4038;42.612;23.066;2023-09-30T10:14:16;93511.41;;;35.64;18.90
7986;BME280;4038;42.612;23.066;2023-09-30T10:19:19;93505.75;;;35.29;19.38
7986;BME280;4038;42.612;23.066;2023-09-30T10:24:57;93505.34;;;33.89;20.04
7986;BME280;4038;42.612;23.066;2023-09-30T10:30:13;93513.19;;;32.86;20.67
7986;BME280;4038;42.612;23.066;2023-09-30T10:35:20;93492.84;;;34.12;20.05
7986;BME280;4038;42.612;23.066;2023-09-30T10:37:46;93502.81;;;32.36;21.07
7986;BME280;4038;42.612;23.066;2023-09-30T10:40:41;93482.28;;;32.79;20.86
7986;BME280;4038;42.612;23.066;2023-09-30T10:43:37;93501.84;;;33.16;20.81
7986;BME280;4038;42.612;23.066;2023-09-30T10:46:04;93500.06;;;32.79;20.67
7986;BME280;4038;42.612;23.066;2023-09-30T10:48:49;93483.53;;;33.48;20.41
7986;BME280;4038;42.612;23.066;2023-09-30T10:51:19;93486.16;;;34.21;20.20
7986;BME280;4038;42.612;23.066;2023-09-30T10:53:52;93473.31;;;34.35;19.68
7986;BME280;4038;42.612;23.066;2023-09-30T10:56:20;93473.44;;;33.45;20.11
7986;BME280;4038;42.612;23.066;2023-09-30T10:58:52;93478.72;;;33.08;20.74
7986;BME280;4038;42.612;23.066;2023-09-30T11:01:22;93461.25;;;33.13;20.41
7986;BME280;4038;42.612;23.066;2023-09-30T11:03:49;93468.53;;;33.03;20.25
7986;BME280;4038;42.612;23.066;2023-09-30T11:06:18;93468.06;;;32.79;20.72
7986;BME280;4038;42.612;23.066;2023-09-30T11:08:51;93458.88;;;34.16;18.98
7986;BME280;4038;42.612;23.066;2023-09-30T11:11:16;93463.63;;;33.19;20.08
7986;BME280;4038;42.612;23.066;2023-09-30T11:13:42;93456.50;;;33.18;19.94
7986;BME280;4038;42.612;23.066;2023-09-30T11:16:08;93465.16;;;33.20;19.66
7986;BME280;4038;42.612;23.066;2023-09-30T11:18:34;93452.91;;;32.17;20.36
7986;BME280;4038;42.612;23.066;2023-09-30T11:21:10;93446.69;;;33.97;19.25
7986;BME280;4038;42.612;23.066;2023-09-30T11:23:39;93454.75;;;32.54;20.02
7986;BME280;4038;42.612;23.066;2023-09-30T11:26:06;93453.84;;;32.22;20.23
7986;BME280;4038;42.612;23.066;2023-09-30T11:28:40;93449.53;;;32.07;20.83
7986;BME280;4038;42.612;23.066;2023-09-30T11:31:12;93452.63;;;33.56;20.06
7986;BME280;4038;42.612;23.066;2023-09-30T11:33:51;93454.28;;;34.24;19.03
7986;BME280;4038;42.612;23.066;2023-09-30T11:36:19;93439.81;;;33.87;19.08
7986;BME280;4038;42.612;23.066;2023-09-30T11:38:46;93439.22;;;31.87;20.37
7986;BME280;4038;42.612;23.066;2023-09-30T11:41:13;93427.34;;;30.73;21.44
7986;BME280;4038;42.612;23.066;2023-09-30T11:43:44;93434.59;;;31.93;21.54
7986;BME280;4038;42.612;23.066;2023-09-30T11:46:23;93431.72;;;33.05;20.29
7986;BME280;4038;42.612;23.066;2023-09-30T11:49:01;93417.22;;;33.59;18.88
7986;BME280;4038;42.612;23.066;2023-09-30T11:51:27;93433.25;;;34.16;18.81
7986;BME280;4038;42.612;23.066;2023-09-30T11:53:54;93430.28;;;33.80;18.97
7986;BME280;4038;42.612;23.066;2023-09-30T11:56:20;93420.06;;;33.28;19.01
7986;BME280;4038;42.612;23.066;2023-09-30T11:58:52;93418.25;;;34.46;18.45
7986;BME280;4038;42.612;23.066;2023-09-30T12:01:18;93417.13;;;33.57;18.87
7986;BME280;4038;42.612;23.066;2023-09-30T12:03:44;93417.06;;;33.71;19.31
7986;BME280;4038;42.612;23.066;2023-09-30T12:06:09;93411.44;;;33.26;19.42
7986;BME280;4038;42.612;23.066;2023-09-30T12:08:39;93412.38;;;33.46;19.37
7986;BME280;4038;42.612;23.066;2023-09-30T12:11:05;93397.44;;;33.93;18.61
7986;BME280;4038;42.612;23.066;2023-09-30T12:13:31;93411.19;;;33.98;19.05
7986;BME280;4038;42.612;23.066;2023-09-30T12:15:56;93395.88;;;33.90;18.97
7986;BME280;4038;42.612;23.066;2023-09-30T12:18:22;93399.00;;;33.49;19.41
7986;BME280;4038;42.612;23.066;2023-09-30T12:20:52;93383.47;;;33.52;19.45
7986;BME280;4038;42.612;23.066;2023-09-30T12:23:18;93398.38;;;31.92;20.44
7986;BME280;4038;42.612;23.066;2023-09-30T12:25:45;93392.03;;;31.52;21.31
7986;BME280;4038;42.612;23.066;2023-09-30T12:28:11;93390.03;;;32.37;20.91
7986;BME280;4038;42.612;23.066;2023-09-30T12:30:36;93383.81;;;34.07;19.25
7986;BME280;4038;42.612;23.066;2023-09-30T12:33:02;93388.16;;;33.45;20.05
7986;BME280;4038;42.612;23.066;2023-09-30T12:35:27;93383.38;;;33.65;19.72
7986;BME280;4038;42.612;23.066;2023-09-30T12:37:53;93377.97;;;33.56;19.35
7986;BME280;4038;42.612;23.066;2023-09-30T12:40:18;93396.16;;;33.04;20.39
7986;BME280;4038;42.612;23.066;2023-09-30T12:42:44;93382.75;;;31.77;20.72
7986;BME280;4038;42.612;23.066;2023-09-30T12:45:10;93377.69;;;32.16;21.53
7986;BME280;4038;42.612;23.066;2023-09-30T12:47:36;93376.50;;;31.53;21.10
7986;BME280;4038;42.612;23.066;2023-09-30T12:50:02;93369.47;;;31.40;21.35
7986;BME280;4038;42.612;23.066;2023-09-30T12:52:28;93364.97;;;33.35;20.64
7986;BME280;4038;42.612;23.066;2023-09-30T12:54:55;93366.97;;;31.74;21.19
7986;BME280;4038;42.612;23.066;2023-09-30T12:57:21;93371.06;;;33.14;20.01
7986;BME280;4038;42.612;23.066;2023-09-30T12:59:47;93376.63;;;32.96;20.56
7986;BME280;4038;42.612;23.066;2023-09-30T13:02:17;93364.31;;;34.17;19.09
7986;BME280;4038;42.612;23.066;2023-09-30T13:04:44;93370.31;;;34.74;18.41
7986;BME280;4038;42.612;23.066;2023-09-30T13:07:10;93365.38;;;32.12;20.48
7986;BME280;4038;42.612;23.066;2023-09-30T13:09:36;93367.38;;;32.23;20.04
7986;BME280;4038;42.612;23.066;2023-09-30T13:12:03;93371.88;;;32.71;20.11
7986;BME280;4038;42.612;23.066;2023-09-30T13:14:28;93356.16;;;31.04;21.27
7986;BME280;4038;42.612;23.066;2023-09-30T13:16:54;93364.53;;;31.02;20.95
7986;BME280;4038;42.612;23.066;2023-09-30T13:19:19;93365.09;;;31.65;21.10
7986;BME280;4038;42.612;23.066;2023-09-30T13:21:49;93363.28;;;32.26;20.92
7986;BME280;4038;42.612;23.066;2023-09-30T13:24:15;93366.34;;;32.16;20.69